createdAt,value
2022-08-19T00:02:04.192Z,55.80
2022-08-19T00:04:34.610Z,56.00
2022-08-19T00:07:01.491Z,56.00
2022-08-19T00:09:28.835Z,55.80
2022-08-19T00:11:56.584Z,55.70
2022-08-19T00:14:25.744Z,55.80
2022-08-19T00:16:55.502Z,55.60
2022-08-19T00:19:24.486Z,55.40
2022-08-19T00:21:52.288Z,55.50
2022-08-19T00:24:19.898Z,55.40
2022-08-19T00:26:46.995Z,55.40
2022-08-19T00:29:16.832Z,55.50
2022-08-19T00:31:44.592Z,55.20
2022-08-19T00:34:13.069Z,55.20
2022-08-19T00:36:41.258Z,55.50
2022-08-19T00:39:08.778Z,54.90
2022-08-19T00:41:35.826Z,55.10
2022-08-19T00:44:10.922Z,55.10
2022-08-19T00:46:40.123Z,55.20
2022-08-19T00:49:26.205Z,55.20
2022-08-19T00:51:57.189Z,56.20
2022-08-19T00:54:24.248Z,55.00
2022-08-19T00:56:58.467Z,54.80
2022-08-19T01:00:00.751Z,54.70
2022-08-19T01:02:13.437Z,54.60
2022-08-19T01:04:41.231Z,54.50
2022-08-19T01:07:08.599Z,54.30
2022-08-19T01:09:41.786Z,54.60
2022-08-19T01:12:09.801Z,54.30
2022-08-19T01:14:39.759Z,54.30
2022-08-19T01:17:09.037Z,54.70
2022-08-19T01:19:43.941Z,54.20
2022-08-19T01:22:35.889Z,54.40
2022-08-19T01:25:03.621Z,56.30
2022-08-19T01:27:43.708Z,54.50
2022-08-19T01:30:14.640Z,54.50
2022-08-19T01:32:41.696Z,54.20
2022-08-19T01:35:09.264Z,54.40
2022-08-19T01:37:52.374Z,54.20
2022-08-19T01:40:21.290Z,54.60
2022-08-19T01:42:50.081Z,54.00
2022-08-19T01:45:18.630Z,53.90
2022-08-19T01:47:51.594Z,54.10
2022-08-19T01:50:28.637Z,53.90
2022-08-19T01:53:02.254Z,54.10
2022-08-19T01:55:34.240Z,54.30
2022-08-19T01:58:04.216Z,54.30
2022-08-19T02:00:33.015Z,53.90
2022-08-19T02:03:00.161Z,53.90
2022-08-19T02:05:26.885Z,54.10
2022-08-19T02:07:53.657Z,53.90
2022-08-19T02:10:22.906Z,53.70
2022-08-19T02:12:50.605Z,53.70
2022-08-19T02:15:20.412Z,53.50
2022-08-19T02:17:47.521Z,53.30
2022-08-19T02:20:14.713Z,53.30
2022-08-19T02:22:43.345Z,53.20
2022-08-19T02:25:15.303Z,53.10
2022-08-19T02:27:42.919Z,53.00
2022-08-19T02:30:14.387Z,53.20
2022-08-19T02:32:44.523Z,53.70
2022-08-19T02:35:13.523Z,53.30
2022-08-19T02:37:59.929Z,53.00
2022-08-19T02:40:28.070Z,53.30
2022-08-19T02:42:55.275Z,53.10
2022-08-19T02:45:22.362Z,53.30
2022-08-19T02:47:49.093Z,53.50
2022-08-19T02:50:15.783Z,53.20
2022-08-19T02:52:42.523Z,53.40
2022-08-19T02:55:10.372Z,53.20
2022-08-19T02:57:37.094Z,53.00
2022-08-19T03:00:07.516Z,53.50
2022-08-19T03:02:34.308Z,53.10
2022-08-19T03:05:01.017Z,53.30
2022-08-19T03:07:27.691Z,53.40
2022-08-19T03:09:54.403Z,53.10
2022-08-19T03:12:21.177Z,53.40
2022-08-19T03:14:51.937Z,53.40
2022-08-19T03:17:18.663Z,53.40
2022-08-19T03:19:45.703Z,53.50
2022-08-19T03:22:12.505Z,53.30
2022-08-19T03:24:39.885Z,53.50
2022-08-19T03:27:06.589Z,53.40
2022-08-19T03:29:33.772Z,53.60
2022-08-19T03:32:09.951Z,53.50
2022-08-19T03:34:56.729Z,53.40
2022-08-19T03:37:24.585Z,53.90
2022-08-19T03:39:52.677Z,53.40
2022-08-19T03:42:32.880Z,53.30
2022-08-19T03:45:06.261Z,53.40
2022-08-19T03:47:33.296Z,53.30
2022-08-19T03:50:00.091Z,53.50
2022-08-19T03:52:26.815Z,53.10
2022-08-19T03:54:53.638Z,53.30
2022-08-19T03:57:20.359Z,53.00
2022-08-19T03:59:47.071Z,53.30
2022-08-19T04:02:14.310Z,53.10
2022-08-19T04:04:44.259Z,53.00
2022-08-19T04:07:13.846Z,52.90
2022-08-19T04:09:40.593Z,53.00
2022-08-19T04:12:07.705Z,52.90
2022-08-19T04:14:35.324Z,53.10
2022-08-19T04:17:07.407Z,52.90
2022-08-19T04:19:36.256Z,53.00
2022-08-19T04:22:03.627Z,52.90
2022-08-19T04:24:30.562Z,52.90
2022-08-19T04:26:57.540Z,53.40
2022-08-19T04:29:27.779Z,52.90
2022-08-19T04:31:56.659Z,52.80
2022-08-19T04:34:26.522Z,52.40
2022-08-19T04:36:54.780Z,52.30
2022-08-19T04:39:22.666Z,52.40
2022-08-19T04:42:08.845Z,58.80
2022-08-19T04:44:44.040Z,53.40
2022-08-19T04:47:13.143Z,52.60
2022-08-19T04:49:41.062Z,53.00
2022-08-19T04:52:09.442Z,52.70
2022-08-19T04:54:37.235Z,52.70
2022-08-19T04:57:07.685Z,52.60
2022-08-19T04:59:35.202Z,52.50
2022-08-19T05:02:02.191Z,52.50
2022-08-19T05:04:32.946Z,52.60
2022-08-19T05:07:01.961Z,52.50
2022-08-19T05:09:39.053Z,52.80
2022-08-19T05:12:16.711Z,52.70
2022-08-19T05:14:46.479Z,52.80
2022-08-19T05:17:31.208Z,52.70
2022-08-19T05:20:18.303Z,52.80
2022-08-19T05:22:47.304Z,53.00
2022-08-19T05:25:19.484Z,53.20
2022-08-19T05:27:46.471Z,53.10
2022-08-19T05:30:13.585Z,53.40
2022-08-19T05:32:40.973Z,53.80
2022-08-19T05:35:08.431Z,53.90
2022-08-19T05:37:35.180Z,53.80
2022-08-19T05:40:02.409Z,53.90
2022-08-19T05:42:29.485Z,53.90
2022-08-19T05:44:57.639Z,54.20
2022-08-19T05:47:26.404Z,54.30
2022-08-19T05:49:53.213Z,58.30
2022-08-19T05:52:25.543Z,55.20
2022-08-19T05:54:55.978Z,55.00
2022-08-19T05:57:23.430Z,55.70
2022-08-19T05:59:56.748Z,55.70
2022-08-19T06:02:26.617Z,55.90
2022-08-19T06:04:53.284Z,56.70
2022-08-19T06:07:20.541Z,58.50
2022-08-19T06:09:54.341Z,57.70
2022-08-19T06:12:31.603Z,58.10
2022-08-19T06:15:01.582Z,58.50
2022-08-19T06:17:31.473Z,58.80
2022-08-19T06:19:59.479Z,59.10
2022-08-19T06:22:27.038Z,59.40
2022-08-19T06:24:56.490Z,59.50
2022-08-19T06:27:23.845Z,59.90
2022-08-19T06:29:50.909Z,60.20
2022-08-19T06:32:19.621Z,60.50
2022-08-19T06:34:46.447Z,60.60
2022-08-19T06:37:13.782Z,60.70
2022-08-19T06:39:42.435Z,61.00
2022-08-19T06:42:12.598Z,61.10
2022-08-19T06:44:43.045Z,61.40
2022-08-19T06:47:14.582Z,61.60
2022-08-19T06:49:42.934Z,61.90
2022-08-19T06:52:13.722Z,61.90
2022-08-19T06:54:56.618Z,62.00
2022-08-19T06:57:27.805Z,62.30
2022-08-19T06:59:56.105Z,62.50
2022-08-19T07:02:27.236Z,62.80
2022-08-19T07:04:54.723Z,61.40
2022-08-19T07:07:23.169Z,62.80
2022-08-19T07:09:54.381Z,62.80
2022-08-19T07:12:30.391Z,61.60
2022-08-19T07:14:58.860Z,62.70
2022-08-19T07:17:26.770Z,62.90
2022-08-19T07:19:54.795Z,63.10
2022-08-19T07:22:24.137Z,62.90
2022-08-19T07:24:54.653Z,63.10
2022-08-19T07:27:25.192Z,63.20
2022-08-19T07:29:55.903Z,63.20
2022-08-19T07:32:23.200Z,63.30
2022-08-19T07:34:51.068Z,63.30
2022-08-19T07:37:18.048Z,64.10
2022-08-19T07:39:44.872Z,63.50
2022-08-19T07:42:13.345Z,64.00
2022-08-19T07:47:47.816Z,63.90
2022-08-19T07:49:59.492Z,63.70
2022-08-19T07:52:26.300Z,63.70
2022-08-19T07:54:53.089Z,63.80
2022-08-19T07:57:20.844Z,63.80
2022-08-19T07:59:47.584Z,63.80
2022-08-19T08:02:14.312Z,63.90
2022-08-19T08:04:59.824Z,64.10
2022-08-19T08:07:46.462Z,64.30
2022-08-19T08:10:21.363Z,64.00
2022-08-19T08:13:01.850Z,63.90
2022-08-19T08:15:42.209Z,64.10
2022-08-19T08:18:10.538Z,64.50
2022-08-19T08:20:37.290Z,64.10
2022-08-19T08:23:22.742Z,64.50
2022-08-19T08:25:50.040Z,63.60
2022-08-19T08:28:18.332Z,64.20
2022-08-19T08:30:47.317Z,63.90
2022-08-19T08:35:43.247Z,63.40
2022-08-19T08:38:09.931Z,63.50
2022-08-19T08:40:42.503Z,63.40
2022-08-19T08:43:33.430Z,63.10
2022-08-19T08:46:14.768Z,63.30
2022-08-19T08:49:34.473Z,62.60
2022-08-19T08:52:08.194Z,62.80
2022-08-19T08:54:48.878Z,63.70
2022-08-19T08:57:33.725Z,63.60
2022-08-19T09:00:15.690Z,63.30
2022-08-19T09:02:43.486Z,63.10
2022-08-19T09:05:16.774Z,63.70
2022-08-19T09:08:09.697Z,63.90
2022-08-19T09:10:45.909Z,63.80
2022-08-19T09:13:50.140Z,63.60
2022-08-19T09:16:27.938Z,63.70
2022-08-19T09:19:01.690Z,63.70
2022-08-19T09:21:30.374Z,64.80
2022-08-19T09:24:00.087Z,63.70
2022-08-19T09:26:47.154Z,64.10
2022-08-19T09:29:14.255Z,63.90
2022-08-19T09:31:41.207Z,63.20
2022-08-19T09:34:07.962Z,63.20
2022-08-19T09:36:54.831Z,64.00
2022-08-19T09:39:22.269Z,63.20
2022-08-19T09:41:50.907Z,62.90
2022-08-19T09:44:18.833Z,62.70
2022-08-19T09:46:47.949Z,62.80
2022-08-19T09:49:15.821Z,62.50
2022-08-19T09:51:50.819Z,62.80
2022-08-19T09:54:19.222Z,62.70
2022-08-19T09:56:51.419Z,63.40
2022-08-19T09:59:20.429Z,61.80
2022-08-19T10:01:47.348Z,62.00
2022-08-19T10:04:20.517Z,62.50
2022-08-19T10:06:51.811Z,62.20
2022-08-19T10:09:34.075Z,63.20
2022-08-19T10:12:05.051Z,63.10
2022-08-19T10:14:33.580Z,62.90
2022-08-19T10:17:04.726Z,63.10
2022-08-19T10:19:55.165Z,63.40
2022-08-19T10:22:25.695Z,64.00
2022-08-19T10:24:53.959Z,64.10
2022-08-19T10:27:20.773Z,64.10
2022-08-19T10:29:48.477Z,64.30
2022-08-19T10:32:15.382Z,64.40
2022-08-19T10:34:48.881Z,64.10
2022-08-19T10:37:23.947Z,63.80
2022-08-19T10:39:56.305Z,64.60
2022-08-19T10:42:23.284Z,64.30
2022-08-19T10:44:51.861Z,64.20
2022-08-19T10:47:25.993Z,64.50
2022-08-19T10:50:16.667Z,64.70
2022-08-19T10:52:49.466Z,64.30
2022-08-19T10:55:39.110Z,64.20
2022-08-19T10:58:14.177Z,65.00
2022-08-19T11:00:41.645Z,64.70
2022-08-19T11:03:09.534Z,65.00
2022-08-19T11:05:40.429Z,64.90
2022-08-19T11:08:17.659Z,64.50
2022-08-19T11:10:50.645Z,65.00
2022-08-19T11:13:17.516Z,65.60
2022-08-19T11:15:45.016Z,64.70
2022-08-19T11:18:13.238Z,65.40
2022-08-19T11:20:40.273Z,64.50
2022-08-19T11:23:07.432Z,64.40
2022-08-19T11:25:35.492Z,65.40
2022-08-19T11:28:02.219Z,65.80
2022-08-19T11:30:28.978Z,64.80
2022-08-19T11:32:55.672Z,65.00
2022-08-19T11:35:24.231Z,65.60
2022-08-19T11:37:51.105Z,65.20
2022-08-19T11:40:19.082Z,65.30
2022-08-19T11:42:58.034Z,65.10
2022-08-19T11:45:27.588Z,65.60
2022-08-19T11:47:56.886Z,64.50
2022-08-19T11:50:26.001Z,65.20
2022-08-19T11:52:57.365Z,64.20
2022-08-19T11:55:24.789Z,64.70
2022-08-19T11:57:51.506Z,64.50
2022-08-19T12:00:18.552Z,65.90
2022-08-19T12:02:45.433Z,65.00
2022-08-19T12:05:13.258Z,65.70
2022-08-19T12:07:41.480Z,65.30
2022-08-19T12:10:09.187Z,65.60
2022-08-19T12:12:41.359Z,66.20
2022-08-19T12:15:08.780Z,66.70
2022-08-19T12:17:35.515Z,68.70
2022-08-19T12:20:02.368Z,69.40
2022-08-19T12:22:29.094Z,70.00
2022-08-19T12:24:55.920Z,70.00
2022-08-19T12:27:32.373Z,69.40
2022-08-19T12:30:10.194Z,69.50
2022-08-19T12:32:37.776Z,70.80
2022-08-19T12:35:05.245Z,70.50
2022-08-19T12:37:33.175Z,70.60
2022-08-19T12:40:00.458Z,71.30
2022-08-19T12:42:27.733Z,72.00
2022-08-19T12:44:54.629Z,72.10
2022-08-19T12:47:21.986Z,72.20
2022-08-19T12:49:54.712Z,71.30
2022-08-19T12:52:24.493Z,72.30
2022-08-19T12:54:53.917Z,73.20
2022-08-19T12:57:33.015Z,72.90
2022-08-19T13:00:09.976Z,73.60
2022-08-19T13:02:38.875Z,74.30
2022-08-19T13:05:09.249Z,74.20
2022-08-19T13:07:36.649Z,74.00
2022-08-19T13:10:05.009Z,74.00
2022-08-19T13:12:34.052Z,74.00
2022-08-19T13:15:00.865Z,74.10
2022-08-19T13:17:33.080Z,74.40
2022-08-19T13:20:04.196Z,74.80
2022-08-19T13:22:34.140Z,75.20
2022-08-19T13:25:01.030Z,75.00
2022-08-19T13:27:27.793Z,75.30
2022-08-19T13:30:13.221Z,75.70
2022-08-19T13:32:58.691Z,74.50
2022-08-19T13:35:25.429Z,75.00
2022-08-19T13:37:52.801Z,75.00
2022-08-19T13:40:24.732Z,75.20
2022-08-19T13:42:54.399Z,74.20
2022-08-19T13:45:25.316Z,74.60
2022-08-19T13:47:59.226Z,75.40
2022-08-19T13:50:32.172Z,74.30
2022-08-19T13:52:59.261Z,73.70
2022-08-19T13:55:26.769Z,73.80
2022-08-19T13:57:55.994Z,73.90
2022-08-19T14:00:27.593Z,74.10
2022-08-19T14:02:56.690Z,74.00
2022-08-19T14:05:24.584Z,74.70
2022-08-19T14:07:51.506Z,75.20
2022-08-19T14:10:19.740Z,75.20
2022-08-19T14:12:46.380Z,76.40
2022-08-19T14:15:13.644Z,75.30
2022-08-19T14:17:42.702Z,75.40
2022-08-19T14:20:18.370Z,75.80
2022-08-19T14:22:46.978Z,76.30
2022-08-19T14:25:20.225Z,76.00
2022-08-19T14:27:47.869Z,76.60
2022-08-19T14:30:23.030Z,76.20
2022-08-19T14:32:49.793Z,76.80
2022-08-19T14:35:17.515Z,75.30
2022-08-19T14:37:46.403Z,75.10
2022-08-19T14:40:18.890Z,74.90
2022-08-19T14:42:45.670Z,74.80
2022-08-19T14:45:13.116Z,75.20
2022-08-19T14:47:46.915Z,74.20
2022-08-19T14:50:17.830Z,73.90
2022-08-19T14:52:48.805Z,74.00
2022-08-19T14:55:18.157Z,75.30
2022-08-19T14:57:48.856Z,75.20
2022-08-19T15:00:16.195Z,74.30
2022-08-19T15:02:45.210Z,74.70
2022-08-19T15:05:12.200Z,75.50
2022-08-19T15:07:39.285Z,75.70
2022-08-19T15:10:10.603Z,75.90
2022-08-19T15:12:39.481Z,75.90
2022-08-19T15:15:13.684Z,75.60
2022-08-19T15:17:54.849Z,76.10
2022-08-19T15:20:25.190Z,75.50
2022-08-19T15:22:52.122Z,76.00
2022-08-19T15:25:20.117Z,74.10
2022-08-19T15:27:47.772Z,74.30
2022-08-19T15:30:22.332Z,74.40
2022-08-19T15:32:53.475Z,74.90
2022-08-19T15:35:21.250Z,74.80
2022-08-19T15:37:52.467Z,74.20
2022-08-19T15:40:20.852Z,74.60
2022-08-19T15:42:49.866Z,74.50
2022-08-19T15:45:19.807Z,73.70
2022-08-19T15:47:49.017Z,74.00
2022-08-19T15:50:21.105Z,73.40
2022-08-19T15:52:50.003Z,73.80
2022-08-19T15:55:33.649Z,74.00
2022-08-19T15:58:28.399Z,74.30
2022-08-19T16:01:23.551Z,74.10
2022-08-19T16:04:11.333Z,73.20
2022-08-19T16:06:47.715Z,73.60
2022-08-19T16:09:16.753Z,72.80
2022-08-19T16:11:46.430Z,73.10
2022-08-19T16:14:16.152Z,72.50
2022-08-19T16:16:46.775Z,72.50
2022-08-19T16:19:16.744Z,72.80
2022-08-19T16:21:49.119Z,72.60
2022-08-19T16:24:18.308Z,72.60
2022-08-19T16:26:46.188Z,72.80
2022-08-19T16:29:13.582Z,73.60
2022-08-19T16:31:44.880Z,73.90
2022-08-19T16:34:13.078Z,73.60
2022-08-19T16:36:43.422Z,73.60
2022-08-19T16:39:12.090Z,73.70
2022-08-19T16:41:40.281Z,72.10
2022-08-19T16:44:09.721Z,72.70
2022-08-19T16:46:37.316Z,73.20
2022-08-19T16:49:05.347Z,73.20
2022-08-19T16:51:33.696Z,73.20
2022-08-19T16:54:01.200Z,73.20
2022-08-19T16:56:28.987Z,72.70
2022-08-19T16:58:56.322Z,73.30
2022-08-19T17:01:23.100Z,73.40
2022-08-19T17:03:52.025Z,73.60
2022-08-19T17:06:22.416Z,73.90
2022-08-19T17:08:50.781Z,73.70
2022-08-19T17:11:19.336Z,73.90
2022-08-19T17:13:50.809Z,74.40
2022-08-19T17:16:19.788Z,74.50
2022-08-19T17:18:46.528Z,73.80
2022-08-19T17:21:13.484Z,74.00
2022-08-19T17:23:43.595Z,74.00
2022-08-19T17:26:18.149Z,74.00
2022-08-19T17:28:51.013Z,74.10
2022-08-19T17:31:21.103Z,74.10
2022-08-19T17:33:48.506Z,74.10
2022-08-19T17:36:23.396Z,73.90
2022-08-19T17:38:52.829Z,73.70
2022-08-19T17:41:19.605Z,73.50
2022-08-19T17:43:46.446Z,73.50
2022-08-19T17:46:18.704Z,73.50
2022-08-19T17:48:52.121Z,73.40
2022-08-19T17:51:40.392Z,73.10
2022-08-19T17:54:11.167Z,72.90
2022-08-19T17:56:38.162Z,72.10
2022-08-19T17:59:06.251Z,71.80
2022-08-19T18:01:53.200Z,71.70
2022-08-19T18:04:21.321Z,71.80
2022-08-19T18:06:53.143Z,71.10
2022-08-19T18:09:24.034Z,70.60
2022-08-19T18:11:53.039Z,70.10
2022-08-19T18:14:32.051Z,69.70
2022-08-19T18:17:06.108Z,70.20
2022-08-19T18:19:42.226Z,70.00
2022-08-19T18:22:22.389Z,69.70
2022-08-19T18:24:49.208Z,69.40
2022-08-19T18:27:15.968Z,68.90
2022-08-19T18:29:43.396Z,69.30
2022-08-19T18:32:13.512Z,69.40
2022-08-19T18:34:45.900Z,69.60
2022-08-19T18:37:12.898Z,69.20
2022-08-19T18:39:58.244Z,69.70
2022-08-19T18:42:43.964Z,69.90
2022-08-19T18:45:31.523Z,69.80
2022-08-19T18:48:25.753Z,70.40
2022-08-19T18:50:56.105Z,70.10
2022-08-19T18:53:22.798Z,70.30
2022-08-19T18:55:53.814Z,70.00
2022-08-19T18:58:25.904Z,70.50
2022-08-19T19:00:56.909Z,70.50
2022-08-19T19:03:24.980Z,70.50
2022-08-19T19:05:52.758Z,70.60
2022-08-19T19:08:19.797Z,70.30
2022-08-19T19:10:47.687Z,70.50
2022-08-19T19:13:17.768Z,70.80
2022-08-19T19:15:44.648Z,70.60
2022-08-19T19:18:13.382Z,70.40
2022-08-19T19:20:43.081Z,70.20
2022-08-19T19:23:09.824Z,70.20
2022-08-19T19:25:44.817Z,69.90
2022-08-19T19:28:18.598Z,69.90
2022-08-19T19:30:45.314Z,69.90
2022-08-19T19:33:12.241Z,70.60
2022-08-19T19:35:40.975Z,70.20
2022-08-19T19:38:12.531Z,70.50
2022-08-19T19:40:39.250Z,70.00
2022-08-19T19:43:06.433Z,70.20
2022-08-19T19:45:33.531Z,69.90
2022-08-19T19:48:00.647Z,69.80
2022-08-19T19:50:30.243Z,69.60
2022-08-19T19:52:57.831Z,69.80
2022-08-19T19:55:26.488Z,69.80
2022-08-19T19:57:54.159Z,69.30
2022-08-19T20:00:21.910Z,69.50
2022-08-19T20:02:50.704Z,69.70
2022-08-19T20:05:21.433Z,69.40
2022-08-19T20:08:08.575Z,69.20
2022-08-19T20:10:35.466Z,69.50
2022-08-19T20:13:03.578Z,69.30
2022-08-19T20:15:32.188Z,69.40
2022-08-19T20:18:00.871Z,69.40
2022-08-19T20:20:28.062Z,69.70
2022-08-19T20:22:55.131Z,69.80
2022-08-19T20:25:22.463Z,69.60
2022-08-19T20:27:49.812Z,69.50
2022-08-19T20:30:19.872Z,69.50
2022-08-19T20:32:48.213Z,69.50
2022-08-19T20:35:16.363Z,69.40
2022-08-19T20:37:43.058Z,69.10
2022-08-19T20:40:13.885Z,69.10
2022-08-19T20:42:42.797Z,69.40
2022-08-19T20:45:21.594Z,69.40
2022-08-19T20:47:59.869Z,69.40
2022-08-19T20:50:30.120Z,69.30
2022-08-19T20:52:57.587Z,69.40
2022-08-19T20:55:25.290Z,69.50
2022-08-19T20:57:52.119Z,69.40
2022-08-19T21:00:19.233Z,69.40
2022-08-19T21:02:46.932Z,69.40
2022-08-19T21:05:14.792Z,69.70
2022-08-19T21:07:42.595Z,69.60
2022-08-19T21:10:09.387Z,69.50
2022-08-19T21:12:36.307Z,70.20
2022-08-19T21:15:03.675Z,69.50
2022-08-19T21:17:30.373Z,69.50
2022-08-19T21:19:57.138Z,69.50
2022-08-19T21:22:23.902Z,69.50
2022-08-19T21:24:50.741Z,69.30
2022-08-19T21:27:17.449Z,69.30
2022-08-19T21:29:44.183Z,69.10
2022-08-19T21:32:14.237Z,69.00
2022-08-19T21:34:46.290Z,69.00
2022-08-19T21:37:24.832Z,68.70
2022-08-19T21:39:52.841Z,68.70
2022-08-19T21:42:19.738Z,68.50
2022-08-19T21:44:46.457Z,68.60
2022-08-19T21:47:13.265Z,68.60
2022-08-19T21:49:40.108Z,68.60
2022-08-19T21:52:08.173Z,68.30
2022-08-19T21:54:37.703Z,68.20
2022-08-19T21:57:10.693Z,68.00
2022-08-19T21:59:41.124Z,68.10
2022-08-19T22:02:20.099Z,68.00
2022-08-19T22:04:48.622Z,68.00
2022-08-19T22:07:15.817Z,67.90
2022-08-19T22:09:44.290Z,67.80
2022-08-19T22:12:30.285Z,67.80
2022-08-19T22:14:57.958Z,67.60
2022-08-19T22:17:27.432Z,67.60
2022-08-19T22:19:55.952Z,67.50
2022-08-19T22:22:30.672Z,67.60
2022-08-19T22:25:11.509Z,67.70
2022-08-19T22:27:39.060Z,68.10
2022-08-19T22:30:10.136Z,67.50
2022-08-19T22:32:37.382Z,67.70
2022-08-19T22:35:08.589Z,67.70
2022-08-19T22:37:35.273Z,67.40
2022-08-19T22:40:05.477Z,67.40
2022-08-19T22:42:33.282Z,67.50
2022-08-19T22:45:00.422Z,67.40
2022-08-19T22:47:28.845Z,67.50
2022-08-19T22:49:58.848Z,67.30
2022-08-19T22:52:26.651Z,67.50
2022-08-19T22:54:56.953Z,67.40
2022-08-19T22:57:24.851Z,67.30
2022-08-19T22:59:52.739Z,67.30
2022-08-19T23:02:23.663Z,67.20
2022-08-19T23:04:51.549Z,67.30
2022-08-19T23:07:23.797Z,67.20
2022-08-19T23:09:51.184Z,67.20
2022-08-19T23:12:30.700Z,67.10
2022-08-19T23:15:06.371Z,67.10
2022-08-19T23:17:33.647Z,67.20
2022-08-19T23:20:00.422Z,67.10
2022-08-19T23:22:27.335Z,67.10
2022-08-19T23:24:56.025Z,67.10
2022-08-19T23:27:41.782Z,67.10
2022-08-19T23:30:27.347Z,67.10
2022-08-19T23:33:00.979Z,67.10
2022-08-19T23:35:32.996Z,67.00
2022-08-19T23:38:01.109Z,67.10
2022-08-19T23:40:28.337Z,67.00
2022-08-19T23:42:55.203Z,67.00
2022-08-19T23:45:24.697Z,66.80
2022-08-19T23:47:53.295Z,66.90
2022-08-19T23:50:24.785Z,66.70
2022-08-19T23:52:57.800Z,66.80
2022-08-19T23:55:28.005Z,66.90
2022-08-19T23:57:55.023Z,66.90
